Terminal Aerodrome Forecast
Issued by NWS

Home | Current Version | Previous Version | Text Only | Print | Product List | Glossary On
Versions: 1 2 3 4 5 6 7 8 9 10 11 12 13 14 15 16 17 18 19 20 21 22
000
FTUS46 KOTX 152004 AAB
TAFSFF
TAF AMD
KSFF 152004Z 1520/1618 27004KT 1/2SM SN OVC009
      TEMPO 1520/1522 1/4SM SN FZFG VV009
     FM152200 22004KT 2SM -SN BR SCT006 OVC009
     FM160000 23003KT 5SM -SHSN BR BKN012
     FM160700 26004KT 3SM BR OVC009=

USA.gov is the U.S. government's official web portal to all federal, state and local government web resources and services.